Time;durP1;ratioP1;P1;durP2;ratioP2;P2;SDS_P1;SDS_P2;PMS_P1;PMS_P2;Temp;Humidity;BMP_temperature;BMP_pressure;BME280_temperature;BME280_humidity;BME280_pressure;Samples;Min_cycle;Max_cycle;Signal;HPM_P1;HPM_P2
2021/01/25 00:02:10;;;;;;;2.20;1.60;;;-2.30;80.10;;;;;;5036206;28;20078;-74
2021/01/25 00:04:38;;;;;;;3.28;2.05;;;-2.00;79.90;;;;;;5053749;28;20163;-75
2021/01/25 00:07:03;;;;;;;3.85;2.15;;;-2.10;78.80;;;;;;5053738;28;20032;-74
2021/01/25 00:09:30;;;;;;;4.35;2.47;;;-2.20;79.10;;;;;;5053564;28;20392;-75
2021/01/25 00:11:56;;;;;;;3.60;1.92;;;-2.30;79.00;;;;;;5053862;28;20021;-75
2021/01/25 00:14:21;;;;;;;3.90;2.15;;;-2.20;79.70;;;;;;5053479;28;20051;-75
2021/01/25 00:16:47;;;;;;;2.88;2.03;;;-2.40;79.40;;;;;;5053709;28;20029;-75
2021/01/25 00:19:13;;;;;;;2.53;1.95;;;-2.80;79.90;;;;;;5053542;28;20013;-75
2021/01/25 00:21:38;;;;;;;3.97;2.15;;;-2.90;81.20;;;;;;5053384;28;20033;-74
2021/01/25 00:24:05;;;;;;;2.33;1.83;;;-2.90;82.50;;;;;;5053269;28;20025;-75
2021/01/25 00:26:30;;;;;;;2.20;1.75;;;-2.60;81.50;;;;;;5053460;28;20116;-75
2021/01/25 00:28:56;;;;;;;3.33;1.83;;;-2.80;80.70;;;;;;5053686;28;20472;-75
2021/01/25 00:31:22;;;;;;;3.13;1.90;;;-3.00;81.30;;;;;;5035322;28;20033;-75
2021/01/25 00:33:47;;;;;;;2.33;1.75;;;-3.10;82.40;;;;;;5035186;28;20025;-74
2021/01/25 00:36:13;;;;;;;6.50;1.67;;;-2.90;82.60;;;;;;5053086;28;20403;-75
2021/01/25 00:38:39;;;;;;;3.88;2.35;;;-2.70;82.70;;;;;;5053144;28;20025;-75
2021/01/25 00:41:04;;;;;;;2.65;1.90;;;-2.70;81.70;;;;;;5052929;28;20388;-74
2021/01/25 00:43:30;;;;;;;1.85;1.55;;;-2.70;81.30;;;;;;5035319;28;20362;-75
2021/01/25 00:45:56;;;;;;;5.20;1.77;;;-2.40;81.50;;;;;;5034898;28;20036;-75
2021/01/25 00:48:22;;;;;;;5.10;1.85;;;-2.20;80.40;;;;;;5035221;28;20495;-75
2021/01/25 00:50:48;;;;;;;2.17;1.67;;;-2.50;79.70;;;;;;5052853;28;20385;-75
2021/01/25 00:53:13;;;;;;;5.68;2.20;;;-2.70;80.20;;;;;;5052885;28;20023;-75
2021/01/25 00:55:39;;;;;;;3.28;2.05;;;-3.00;81.10;;;;;;5051608;28;20055;-74
2021/01/25 00:58:05;;;;;;;3.58;1.88;;;-3.10;82.20;;;;;;5035048;28;20033;-75
2021/01/25 01:00:30;;;;;;;1.60;1.40;;;-2.80;82.90;;;;;;5052760;28;20029;-75
2021/01/25 01:02:56;;;;;;;2.45;1.63;;;-2.70;81.30;;;;;;5052738;28;20029;-75
2021/01/25 01:05:22;;;;;;;2.50;1.67;;;-2.50;80.60;;;;;;5034588;28;20481;-74
2021/01/25 01:07:48;;;;;;;2.67;1.35;;;-2.70;80.00;;;;;;5052661;28;20488;-75
2021/01/25 01:10:13;;;;;;;3.90;1.80;;;-2.70;80.40;;;;;;5034579;28;20300;-75
2021/01/25 01:12:39;;;;;;;4.00;1.90;;;-2.70;80.40;;;;;;5052581;28;20026;-75
2021/01/25 01:15:11;;;;;;;2.45;1.63;;;-2.50;80.80;;;;;;5052484;28;20472;-75
2021/01/25 01:17:38;;;;;;;2.88;2.03;;;-2.60;79.60;;;;;;5053071;28;20021;-75
2021/01/25 01:20:05;;;;;;;3.47;1.50;;;-2.80;79.50;;;;;;5052410;28;20074;-74
2021/01/25 01:22:31;;;;;;;3.15;1.83;;;-3.00;80.30;;;;;;5034642;28;20029;-75
2021/01/25 01:24:57;;;;;;;3.67;1.40;;;-3.10;80.90;;;;;;5052356;28;20032;-75
2021/01/25 01:27:23;;;;;;;2.83;1.98;;;-3.10;80.80;;;;;;5052459;28;20384;-75
2021/01/25 01:29:49;;;;;;;3.10;1.70;;;-3.00;81.10;;;;;;5052388;28;20021;-74
2021/01/25 01:32:15;;;;;;;2.28;1.40;;;-3.00;80.80;;;;;;5034815;28;20033;-75
2021/01/25 01:34:40;;;;;;;2.40;1.85;;;-3.00;81.60;;;;;;5052146;28;20029;-74
2021/01/25 01:37:06;;;;;;;3.60;1.63;;;-2.90;80.70;;;;;;5052126;28;20024;-74
2021/01/25 01:39:32;;;;;;;2.70;1.98;;;-3.20;80.50;;;;;;5052100;28;20490;-75
2021/01/25 01:41:58;;;;;;;2.28;1.50;;;-3.00;81.90;;;;;;5051931;28;20021;-74
2021/01/25 01:44:23;;;;;;;7.75;1.95;;;-2.70;80.60;;;;;;5051801;28;20468;-75
2021/01/25 01:46:49;;;;;;;1.48;1.38;;;-2.70;79.50;;;;;;5033902;28;20075;-75
2021/01/25 01:49:15;;;;;;;3.88;2.08;;;-2.70;79.00;;;;;;5051810;28;20416;-75
2021/01/25 01:51:41;;;;;;;3.78;2.05;;;-2.90;78.50;;;;;;5033645;28;20021;-75
2021/01/25 01:54:07;;;;;;;3.80;1.67;;;-3.10;79.20;;;;;;5051616;28;20388;-75
2021/01/25 01:56:34;;;;;;;2.92;1.70;;;-3.00;79.70;;;;;;5051567;28;20025;-75
2021/01/25 01:59:00;;;;;;;1.80;1.50;;;-2.90;78.90;;;;;;5051753;28;20310;-75
2021/01/25 02:01:26;;;;;;;3.03;1.55;;;-2.80;77.90;;;;;;5051558;28;20465;-75
2021/01/25 02:03:53;;;;;;;3.42;1.85;;;-2.80;76.90;;;;;;5051579;28;20025;-75
2021/01/25 02:06:20;;;;;;;3.17;1.60;;;-3.20;76.70;;;;;;5051037;28;20100;-75
2021/01/25 02:08:48;;;;;;;1.95;1.35;;;-3.50;78.10;;;;;;5051382;28;20081;-75
2021/01/25 02:11:14;;;;;;;1.55;1.42;;;-3.50;79.00;;;;;;5051230;28;20022;-75
2021/01/25 02:13:41;;;;;;;1.90;1.67;;;-3.50;79.50;;;;;;5051378;28;20078;-73
2021/01/25 02:16:07;;;;;;;3.03;1.73;;;-3.30;79.60;;;;;;5051171;28;20147;-74
2021/01/25 02:18:36;;;;;;;1.83;1.67;;;-3.20;78.50;;;;;;5051280;28;20108;-74
2021/01/25 02:21:05;;;;;;;4.20;1.70;;;-3.20;78.10;;;;;;5050862;28;20036;-74
2021/01/25 02:24:09;;;;;;;1.88;1.45;;;-3.00;77.80;;;;;;5051155;28;20040;-75
2021/01/25 02:26:58;;;;;;;1.85;1.48;;;-3.00;77.30;;;;;;5019059;28;20513;-75
2021/01/25 02:29:24;;;;;;;2.17;1.63;;;-2.80;76.70;;;;;;5051195;28;20052;-74
2021/01/25 02:31:51;;;;;;;1.33;1.23;;;-2.70;77.30;;;;;;5050749;28;20061;-75
2021/01/25 02:34:17;;;;;;;7.93;1.50;;;-2.80;76.40;;;;;;5050956;28;20078;-75
2021/01/25 02:36:45;;;;;;;3.58;1.42;;;-2.80;76.60;;;;;;5050889;28;20095;-75
2021/01/25 02:39:12;;;;;;;1.92;1.60;;;-2.70;76.80;;;;;;5051195;28;20048;-75
2021/01/25 02:41:39;;;;;;;6.25;1.52;;;-2.60;76.40;;;;;;5050598;28;20488;-75
2021/01/25 02:44:07;;;;;;;6.28;1.88;;;-2.70;75.40;;;;;;5050891;28;20112;-75
2021/01/25 02:46:33;;;;;;;4.00;1.42;;;-2.60;75.50;;;;;;5032906;28;20391;-75
2021/01/25 02:48:59;;;;;;;2.88;1.85;;;-2.70;75.70;;;;;;5050863;28;20093;-75
2021/01/25 02:51:25;;;;;;;4.90;1.77;;;-3.20;76.00;;;;;;5032589;28;20412;-74
2021/01/25 02:53:51;;;;;;;2.80;1.85;;;-3.50;77.10;;;;;;5050892;28;20022;-75
2021/01/25 02:56:17;;;;;;;3.72;1.90;;;-3.50;78.10;;;;;;5050544;28;20520;-74
2021/01/25 02:58:45;;;;;;;5.70;1.65;;;-3.30;78.10;;;;;;5050777;28;20021;-75
2021/01/25 03:01:11;;;;;;;2.10;1.33;;;-3.20;77.20;;;;;;5050833;28;20045;-75
2021/01/25 03:03:38;;;;;;;4.18;1.65;;;-3.10;77.10;;;;;;5032820;28;20032;-75
2021/01/25 03:06:04;;;;;;;2.75;1.45;;;-3.20;76.40;;;;;;5032980;28;20043;-75
2021/01/25 03:11:04;;;;;;;1.73;1.38;;;-3.20;75.20;;;;;;5068052;28;20513;-72
2021/01/25 03:13:30;;;;;;;1.52;1.15;;;-3.20;75.60;;;;;;5053160;28;20017;-72
2021/01/25 03:15:58;;;;;;;6.13;1.30;;;-3.30;75.60;;;;;;5071269;28;20052;-71
2021/01/25 03:18:25;;;;;;;2.47;1.27;;;-3.30;76.10;;;;;;5053917;28;20028;-72
2021/01/25 03:20:51;;;;;;;2.47;1.33;;;-3.30;76.10;;;;;;5075142;28;20021;-73
2021/01/25 03:23:18;;;;;;;2.65;1.60;;;-3.40;75.90;;;;;;5074540;28;20430;-73
2021/01/25 03:25:47;;;;;;;2.97;1.38;;;-3.20;76.20;;;;;;5074537;28;20025;-73
2021/01/25 03:28:13;;;;;;;6.95;1.30;;;-3.10;75.60;;;;;;5074370;28;20077;-73
2021/01/25 03:30:39;;;;;;;1.38;1.23;;;-3.10;75.30;;;;;;5056455;28;20040;-73
2021/01/25 03:33:05;;;;;;;2.15;1.17;;;-2.90;75.40;;;;;;5074160;28;20025;-73
2021/01/25 03:35:31;;;;;;;2.17;0.90;;;-2.70;74.20;;;;;;5056730;28;20029;-73
2021/01/25 03:37:57;;;;;;;4.55;1.65;;;-2.40;73.40;;;;;;5056182;28;20499;-72
2021/01/25 03:40:23;;;;;;;14.98;1.58;;;-2.30;72.40;;;;;;5074326;28;20024;-73
2021/01/25 03:42:49;;;;;;;3.08;1.17;;;-2.20;72.10;;;;;;5074318;28;20043;-72
2021/01/25 03:45:14;;;;;;;1.20;1.10;;;-2.10;71.10;;;;;;5056043;28;20055;-72
2021/01/25 03:47:40;;;;;;;1.90;1.08;;;-2.10;71.30;;;;;;5074214;28;20139;-73
2021/01/25 03:50:07;;;;;;;1.10;1.00;;;-2.10;70.30;;;;;;5073948;28;20467;-73
2021/01/25 03:52:33;;;;;;;2.10;1.20;;;-2.10;70.60;;;;;;5056144;28;20043;-73
2021/01/25 03:54:59;;;;;;;7.05;1.25;;;-2.20;70.40;;;;;;5055671;28;20024;-72
2021/01/25 03:57:24;;;;;;;2.28;1.00;;;-2.20;70.60;;;;;;5073840;28;20069;-73
2021/01/25 03:59:50;;;;;;;1.90;1.00;;;-2.30;70.80;;;;;;5055674;28;20646;-73
2021/01/25 04:02:16;;;;;;;20.83;1.77;;;-2.60;70.00;;;;;;5073704;28;20029;-73
2021/01/25 04:04:42;;;;;;;3.05;1.05;;;-2.70;71.50;;;;;;5073338;28;20025;-73
2021/01/25 04:07:10;;;;;;;2.33;1.13;;;-2.60;71.90;;;;;;5055872;28;20025;-73
2021/01/25 04:09:37;;;;;;;22.35;1.63;;;-2.30;71.60;;;;;;5055461;28;20033;-72
2021/01/25 04:12:03;;;;;;;22.63;2.10;;;-2.30;69.80;;;;;;5073656;28;20040;-73
2021/01/25 04:14:29;;;;;;;2.40;0.88;;;-2.20;70.00;;;;;;5055391;28;20029;-72
2021/01/25 04:16:55;;;;;;;3.10;0.93;;;-2.10;68.70;;;;;;5055945;28;20388;-73
2021/01/25 04:19:20;;;;;;;18.58;2.20;;;-1.90;69.80;;;;;;5055553;28;20020;-73
2021/01/25 04:21:46;;;;;;;15.63;2.45;;;-1.80;69.30;;;;;;5055217;28;20028;-73
2021/01/25 04:24:12;;;;;;;3.28;0.90;;;-1.70;69.20;;;;;;5055560;28;20036;-73
2021/01/25 04:26:41;;;;;;;11.23;1.20;;;-1.50;68.40;;;;;;5073354;28;20032;-72
2021/01/25 04:29:10;;;;;;;15.75;1.45;;;-1.60;67.00;;;;;;5055379;28;20040;-73
2021/01/25 04:31:36;;;;;;;6.82;1.15;;;-1.60;66.90;;;;;;5073145;28;20464;-73
2021/01/25 04:34:02;;;;;;;2.70;1.00;;;-1.70;66.60;;;;;;5073118;28;20032;-73
2021/01/25 04:36:27;;;;;;;3.67;1.40;;;-1.80;66.80;;;;;;5072986;28;20031;-72
2021/01/25 04:38:53;;;;;;;2.70;1.30;;;-1.90;66.90;;;;;;5055390;28;20020;-73
2021/01/25 04:41:19;;;;;;;2.50;0.77;;;-1.90;66.70;;;;;;5072923;28;20499;-73
2021/01/25 04:43:47;;;;;;;1.23;1.10;;;-2.10;66.40;;;;;;5073214;28;20086;-73
2021/01/25 04:46:13;;;;;;;8.85;1.58;;;-2.60;66.70;;;;;;5054891;28;20035;-72
2021/01/25 04:48:40;;;;;;;7.38;2.08;;;-2.80;67.00;;;;;;5073039;28;20033;-73
2021/01/25 04:51:06;;;;;;;1.42;1.00;;;-3.00;67.90;;;;;;5072793;28;20028;-73
2021/01/25 04:53:32;;;;;;;12.02;2.08;;;-2.90;68.00;;;;;;5038689;28;20676;-73
2021/01/25 04:55:59;;;;;;;14.25;1.90;;;-2.90;68.10;;;;;;5055280;28;20166;-72
2021/01/25 04:58:25;;;;;;;24.48;2.50;;;-2.60;68.90;;;;;;5055747;28;20454;-72
2021/01/25 05:00:51;;;;;;;21.77;1.83;;;-2.30;68.80;;;;;;5073774;28;20104;-73
2021/01/25 05:03:17;;;;;;;4.35;1.33;;;-2.20;66.10;;;;;;5055064;28;20442;-73
2021/01/25 05:05:43;;;;;;;6.47;1.42;;;-2.10;66.20;;;;;;5054993;28;20024;-73
2021/01/25 05:08:08;;;;;;;42.78;3.45;;;-1.90;66.20;;;;;;5072495;28;20111;-73
2021/01/25 05:10:34;;;;;;;28.48;2.30;;;-1.80;65.30;;;;;;5073000;28;20078;-73
2021/01/25 05:13:00;;;;;;;21.77;2.08;;;-1.60;64.90;;;;;;5054547;28;20012;-74
2021/01/25 05:15:34;;;;;;;35.67;2.63;;;-1.50;65.20;;;;;;5072440;28;20056;-73
2021/01/25 05:18:07;;;;;;;28.23;2.25;;;-1.70;65.30;;;;;;5072461;28;20020;-73
2021/01/25 05:20:33;;;;;;;44.92;2.80;;;-2.00;66.40;;;;;;5072561;28;20471;-73
2021/01/25 05:23:02;;;;;;;20.02;1.85;;;-2.00;68.40;;;;;;5072016;28;20024;-73
2021/01/25 05:25:31;;;;;;;18.85;3.13;;;-1.90;68.60;;;;;;5072337;28;20356;-73
2021/01/25 05:27:58;;;;;;;40.08;4.78;;;-1.90;69.00;;;;;;5054292;28;20496;-73
2021/01/25 05:30:25;;;;;;;35.65;4.05;;;-1.90;68.70;;;;;;5072315;28;20021;-73
2021/01/25 05:32:52;;;;;;;10.07;1.85;;;-2.00;68.30;;;;;;5054254;28;20025;-73
2021/01/25 05:35:22;;;;;;;2.83;1.50;;;-2.10;68.30;;;;;;5072111;28;20028;-73
2021/01/25 05:37:56;;;;;;;7.03;1.65;;;-2.40;68.20;;;;;;5053988;28;20020;-73
2021/01/25 05:40:24;;;;;;;6.60;2.00;;;-2.30;69.30;;;;;;5053879;28;20107;-73
2021/01/25 05:42:50;;;;;;;8.60;1.40;;;-2.40;69.60;;;;;;5071286;28;20020;-73
2021/01/25 05:45:17;;;;;;;7.90;1.65;;;-2.40;69.10;;;;;;5053655;28;20033;-73
2021/01/25 05:47:51;;;;;;;8.32;1.83;;;-2.50;69.40;;;;;;5072100;28;20050;-73
2021/01/25 05:50:26;;;;;;;4.90;2.03;;;-2.40;69.60;;;;;;5036951;28;20036;-73
2021/01/25 05:52:53;;;;;;;26.48;4.72;;;-2.40;70.00;;;;;;5071792;28;20100;-73
2021/01/25 05:55:20;;;;;;;60.58;5.60;;;-2.40;69.80;;;;;;5053442;28;20035;-74
2021/01/25 05:57:45;;;;;;;5.75;1.90;;;-2.40;69.60;;;;;;5053673;28;20415;-73
2021/01/25 06:00:12;;;;;;;6.60;1.65;;;-2.30;68.80;;;;;;5071241;28;20035;-73
2021/01/25 06:02:41;;;;;;;8.60;1.90;;;-2.30;68.70;;;;;;5071562;28;20090;-73
2021/01/25 06:05:11;;;;;;;19.27;3.13;;;-2.60;67.90;;;;;;5053129;28;20032;-72
2021/01/25 06:07:40;;;;;;;6.50;2.42;;;-2.60;69.10;;;;;;5036947;28;20226;-73
2021/01/25 06:10:11;;;;;;;14.57;2.83;;;-2.60;69.60;;;;;;5053210;28;20499;-73
2021/01/25 06:12:43;;;;;;;10.65;2.80;;;-2.80;69.50;;;;;;5071448;28;20020;-73
2021/01/25 06:15:17;;;;;;;13.82;2.72;;;-2.80;68.90;;;;;;5053126;28;20032;-72
2021/01/25 06:17:45;;;;;;;3.67;2.00;;;-2.70;68.40;;;;;;5071948;28;20082;-72
2021/01/25 06:20:11;;;;;;;7.97;1.65;;;-2.70;68.30;;;;;;5053513;28;20048;-72
2021/01/25 06:22:38;;;;;;;7.13;1.77;;;-2.80;67.60;;;;;;5053813;28;20408;-72
2021/01/25 06:25:07;;;;;;;33.17;4.05;;;-3.00;67.90;;;;;;5071283;28;20055;-72
2021/01/25 06:27:33;;;;;;;13.88;4.28;;;-2.80;69.10;;;;;;5071647;28;20059;-72
2021/01/25 06:30:01;;;;;;;7.75;2.15;;;-2.70;68.80;;;;;;5070970;28;20499;-72
2021/01/25 06:32:31;;;;;;;7.70;2.15;;;-2.90;68.50;;;;;;5053430;28;20230;-71
2021/01/25 06:34:56;;;;;;;7.82;1.90;;;-3.00;69.30;;;;;;5053080;28;20017;-72
2021/01/25 06:37:25;;;;;;;17.17;2.40;;;-3.00;69.60;;;;;;5066753;28;20024;-72
2021/01/25 06:39:50;;;;;;;16.27;2.72;;;-2.80;70.50;;;;;;5036812;28;20021;-72
2021/01/25 06:42:17;;;;;;;8.35;1.80;;;-2.60;69.70;;;;;;5071604;28;20063;-72
2021/01/25 06:44:44;;;;;;;5.38;2.33;;;-2.60;69.40;;;;;;5047789;28;20013;-71
2021/01/25 06:47:15;;;;;;;2.35;1.58;;;-2.50;69.20;;;;;;5033978;28;20365;-72
2021/01/25 06:49:43;;;;;;;12.27;2.15;;;-2.40;69.50;;;;;;5033872;28;20029;-72
2021/01/25 06:52:10;;;;;;;20.02;3.60;;;-2.30;70.10;;;;;;5033340;28;20032;-72
2021/01/25 06:54:43;;;;;;;11.57;2.00;;;-2.10;69.40;;;;;;5067571;28;20095;-72
2021/01/25 06:57:09;;;;;;;44.72;4.00;;;-2.00;68.60;;;;;;5053439;28;20016;-72
2021/01/25 06:59:37;;;;;;;24.77;2.80;;;-2.10;68.50;;;;;;5036624;28;20501;-72
2021/01/25 07:02:11;;;;;;;11.15;2.08;;;-2.00;68.60;;;;;;5036463;28;20020;-72
2021/01/25 07:04:45;;;;;;;9.85;2.10;;;-2.10;68.90;;;;;;5053011;28;20111;-72
2021/01/25 07:07:32;;;;;;;22.98;2.35;;;-2.00;69.70;;;;;;5052711;28;20038;-72
2021/01/25 07:09:58;;;;;;;20.63;2.17;;;-1.80;70.40;;;;;;5070909;28;20032;-72
2021/01/25 07:12:25;;;;;;;25.10;3.20;;;-1.70;70.30;;;;;;5070743;28;20141;-72
2021/01/25 07:14:53;;;;;;;2.60;1.20;;;-1.70;72.00;;;;;;5066231;28;20544;-72
2021/01/25 07:17:19;;;;;;;13.57;1.80;;;-1.60;70.90;;;;;;5036065;28;20124;-72
2021/01/25 07:19:46;;;;;;;61.42;5.80;;;-1.40;71.30;;;;;;5070760;28;20095;-72
2021/01/25 07:22:12;;;;;;;18.35;2.60;;;-1.30;71.20;;;;;;5070393;28;20052;-72
2021/01/25 07:24:39;;;;;;;9.15;2.25;;;-1.30;71.60;;;;;;5051131;28;20016;-72
2021/01/25 07:27:08;;;;;;;7.70;2.33;;;-1.30;71.60;;;;;;5036041;28;20024;-72
2021/01/25 07:29:33;;;;;;;39.78;3.88;;;-1.30;72.10;;;;;;5052446;28;20020;-72
2021/01/25 07:32:00;;;;;;;29.98;3.20;;;-1.30;72.60;;;;;;5052455;28;20024;-72
2021/01/25 07:34:29;;;;;;;13.07;2.67;;;-1.30;73.00;;;;;;5070108;28;20031;-72
2021/01/25 07:36:55;;;;;;;11.40;2.83;;;-1.40;73.90;;;;;;5051906;28;20032;-72
2021/01/25 07:39:21;;;;;;;15.40;3.83;;;-1.70;71.00;;;;;;5029441;28;20090;-72
2021/01/25 07:41:47;;;;;;;13.98;3.65;;;-1.80;72.00;;;;;;5066614;28;20033;-72
2021/01/25 07:44:14;;;;;;;18.63;6.10;;;-1.60;71.50;;;;;;5069978;28;20107;-72
2021/01/25 07:46:43;;;;;;;26.35;5.53;;;-1.70;70.20;;;;;;5070861;28;20056;-72
2021/01/25 07:49:09;;;;;;;9.57;3.95;;;-1.40;70.10;;;;;;5068673;28;20020;-72
2021/01/25 07:51:37;;;;;;;17.25;4.13;;;-1.10;69.50;;;;;;5050843;28;20487;-72
2021/01/25 07:54:03;;;;;;;29.33;4.53;;;-1.00;67.60;;;;;;5070011;28;20019;-72
2021/01/25 07:56:29;;;;;;;14.73;3.42;;;-1.00;67.00;;;;;;5069223;28;20036;-72
2021/01/25 07:59:07;;;;;;;48.15;6.82;;;-0.80;68.10;;;;;;5051660;28;20025;-72
2021/01/25 08:01:45;;;;;;;57.58;7.82;;;-0.70;68.20;;;;;;5022866;28;20031;-72
2021/01/25 08:04:12;;;;;;;11.63;3.40;;;-0.70;68.30;;;;;;5033946;28;20407;-72
2021/01/25 08:06:38;;;;;;;16.98;3.05;;;-0.70;67.40;;;;;;5071588;28;20108;-72
2021/01/25 08:09:06;;;;;;;12.60;4.65;;;-0.70;67.30;;;;;;5072422;28;20039;-72
2021/01/25 08:11:34;;;;;;;7.13;2.13;;;-0.60;67.00;;;;;;5067864;28;20092;-72
2021/01/25 08:14:08;;;;;;;13.57;2.50;;;-0.50;65.20;;;;;;5054076;28;20017;-72
2021/01/25 08:16:39;;;;;;;30.05;2.95;;;-0.20;65.70;;;;;;5072320;28;20054;-72
2021/01/25 08:19:14;;;;;;;14.07;2.80;;;-0.20;65.10;;;;;;5072817;28;20103;-72
2021/01/25 08:22:05;;;;;;;24.27;2.42;;;-0.20;64.90;;;;;;5078091;28;20024;-72
2021/01/25 08:24:34;;;;;;;29.33;2.50;;;-0.10;64.60;;;;;;5066081;28;20048;-72
2021/01/25 08:27:15;;;;;;;47.35;4.43;;;-0.10;65.80;;;;;;5082997;28;20040;-72
2021/01/25 08:29:43;;;;;;;37.53;3.92;;;-0.10;67.30;;;;;;5064792;28;20027;-71
2021/01/25 08:32:28;;;;;;;107.10;43.50;;;0.00;66.80;;;;;;5076403;28;20103;-72
2021/01/25 08:35:05;;;;;;;23.40;4.53;;;0.00;67.70;;;;;;5081043;28;20066;-72
2021/01/25 08:37:33;;;;;;;11.05;2.25;;;0.10;66.40;;;;;;5084822;28;20422;-72
2021/01/25 08:40:20;;;;;;;98.30;7.43;;;0.10;65.90;;;;;;5092193;28;20111;-72
2021/01/25 08:42:46;;;;;;;29.25;4.07;;;0.20;66.50;;;;;;5059201;28;20077;-72
2021/01/25 08:45:22;;;;;;;43.85;4.63;;;0.60;66.60;;;;;;5082707;28;20077;-72
2021/01/25 08:47:48;;;;;;;15.32;3.47;;;0.90;66.10;;;;;;5075927;28;20082;-72
2021/01/25 08:50:27;;;;;;;14.85;3.47;;;0.80;65.20;;;;;;5060885;28;20436;-72
2021/01/25 08:52:59;;;;;;;35.00;3.67;;;0.80;65.40;;;;;;5064991;28;20511;-72
2021/01/25 08:55:29;;;;;;;28.58;2.58;;;0.80;65.50;;;;;;5073705;28;20099;-72
2021/01/25 08:57:55;;;;;;;7.53;2.50;;;0.80;66.00;;;;;;5063170;28;20028;-72
2021/01/25 09:00:42;;;;;;;6.55;2.05;;;0.80;67.00;;;;;;5067639;28;20080;-72
2021/01/25 09:03:11;;;;;;;12.75;2.22;;;0.70;67.00;;;;;;5055683;28;20503;-72
2021/01/25 09:05:38;;;;;;;28.13;4.45;;;0.60;67.10;;;;;;5063255;28;20032;-71
2021/01/25 09:08:04;;;;;;;10.30;3.38;;;0.70;68.20;;;;;;5081357;28;20438;-72
2021/01/25 09:10:30;;;;;;;25.30;2.78;;;0.70;67.90;;;;;;5085119;28;20032;-72
2021/01/25 09:12:55;;;;;;;14.23;2.10;;;0.90;68.10;;;;;;5082744;28;20017;-72
2021/01/25 09:15:22;;;;;;;12.38;2.70;;;0.90;68.10;;;;;;5083394;28;20025;-72
2021/01/25 09:17:48;;;;;;;15.95;2.65;;;1.00;68.20;;;;;;5059117;28;20385;-72
2021/01/25 09:20:15;;;;;;;24.63;3.47;;;1.10;68.00;;;;;;5036715;28;20024;-72
2021/01/25 09:22:41;;;;;;;48.38;6.80;;;1.00;67.70;;;;;;5062867;28;20025;-72
2021/01/25 09:25:08;;;;;;;13.52;2.72;;;1.20;68.40;;;;;;5081237;28;20062;-72
2021/01/25 09:27:34;;;;;;;41.17;4.25;;;1.00;68.50;;;;;;5066536;28;20093;-72
2021/01/25 09:30:00;;;;;;;81.13;6.13;;;1.10;69.90;;;;;;5061247;28;20032;-72
2021/01/25 09:32:25;;;;;;;15.35;2.65;;;1.30;69.90;;;;;;5054287;28;20044;-72
2021/01/25 09:34:53;;;;;;;8.63;3.47;;;1.40;70.00;;;;;;5061531;28;20027;-73
2021/01/25 09:37:20;;;;;;;32.53;3.28;;;1.50;70.10;;;;;;5041270;28;20024;-72
2021/01/25 09:39:45;;;;;;;3.70;2.15;;;1.60;70.20;;;;;;5081789;28;20020;-72
2021/01/25 09:42:11;;;;;;;5.95;2.10;;;1.40;69.70;;;;;;5089208;28;20034;-72
2021/01/25 09:44:37;;;;;;;12.07;2.25;;;1.30;70.00;;;;;;5057192;28;20028;-72
2021/01/25 09:47:04;;;;;;;6.53;1.80;;;1.30;70.60;;;;;;5060817;28;20073;-72
2021/01/25 09:49:30;;;;;;;4.72;1.52;;;1.30;72.80;;;;;;5045906;28;20392;-72
2021/01/25 09:51:56;;;;;;;7.30;1.90;;;1.20;72.80;;;;;;5067294;28;20514;-72
2021/01/25 09:54:22;;;;;;;3.45;1.88;;;1.30;74.60;;;;;;5061450;28;20044;-72
2021/01/25 09:56:49;;;;;;;6.75;1.73;;;1.40;75.00;;;;;;5070871;28;20044;-72
2021/01/25 09:59:16;;;;;;;3.13;1.75;;;1.50;74.00;;;;;;5052852;28;20044;-72
2021/01/25 10:01:41;;;;;;;3.55;2.15;;;1.50;74.40;;;;;;5045340;28;20031;-72
2021/01/25 10:04:07;;;;;;;4.05;2.17;;;1.50;74.40;;;;;;5057425;28;20024;-72
2021/01/25 10:06:33;;;;;;;1.75;1.10;;;1.60;75.60;;;;;;5070919;28;20029;-72
2021/01/25 10:08:59;;;;;;;1.45;1.20;;;1.40;78.40;;;;;;5079878;28;20113;-72
2021/01/25 10:11:25;;;;;;;4.88;1.35;;;1.40;81.20;;;;;;5036218;28;20078;-72
2021/01/25 10:13:51;;;;;;;4.45;1.30;;;1.40;81.60;;;;;;5062092;28;20016;-72
2021/01/25 10:16:19;;;;;;;2.88;1.50;;;1.50;83.20;;;;;;5066156;28;20516;-72
2021/01/25 10:18:48;;;;;;;8.70;1.25;;;1.50;83.00;;;;;;5084909;28;20074;-72
2021/01/25 10:21:16;;;;;;;3.63;2.22;;;1.50;84.10;;;;;;5066798;28;20036;-72
2021/01/25 10:23:43;;;;;;;5.13;1.35;;;1.50;84.40;;;;;;5064697;28;20024;-72
2021/01/25 10:26:09;;;;;;;6.13;1.23;;;1.60;85.70;;;;;;5075381;28;20488;-72
2021/01/25 10:28:34;;;;;;;7.82;1.33;;;1.40;85.60;;;;;;5048013;28;20031;-72
2021/01/25 10:31:00;;;;;;;5.68;1.80;;;1.40;87.10;;;;;;5067255;28;20479;-72
2021/01/25 10:33:26;;;;;;;3.00;1.10;;;1.10;88.40;;;;;;5062312;28;20071;-72
2021/01/25 10:35:52;;;;;;;3.88;1.15;;;1.00;89.90;;;;;;5060937;28;20024;-72
2021/01/25 10:38:17;;;;;;;4.90;1.65;;;1.00;89.80;;;;;;5079714;28;20020;-72
2021/01/25 10:40:43;;;;;;;4.80;1.48;;;1.10;90.70;;;;;;5063147;28;20544;-72
2021/01/25 10:43:09;;;;;;;5.65;1.55;;;0.90;90.60;;;;;;5055589;28;20027;-73
2021/01/25 10:45:35;;;;;;;3.50;1.35;;;0.90;91.40;;;;;;5070437;28;20111;-72
2021/01/25 10:48:01;;;;;;;2.95;1.10;;;1.10;91.90;;;;;;5058198;28;20066;-72
2021/01/25 10:50:27;;;;;;;2.45;1.30;;;1.10;92.50;;;;;;5077299;28;20051;-72
2021/01/25 10:52:54;;;;;;;3.38;1.27;;;1.20;92.50;;;;;;5060798;28;20135;-72
2021/01/25 10:55:20;;;;;;;2.47;1.38;;;1.20;93.90;;;;;;5054523;28;20027;-72
2021/01/25 10:57:46;;;;;;;18.95;1.80;;;1.20;95.20;;;;;;5066872;28;20024;-72
2021/01/25 11:00:21;;;;;;;8.40;1.65;;;1.50;97.20;;;;;;5080194;28;20069;-72
2021/01/25 11:02:48;;;;;;;7.05;1.70;;;1.40;96.70;;;;;;5045681;28;20024;-72
2021/01/25 11:05:17;;;;;;;2.35;0.90;;;1.40;99.70;;;;;;5069461;28;20076;-72
2021/01/25 11:07:43;;;;;;;11.60;1.00;;;1.20;99.90;;;;;;5071976;28;20021;-72
2021/01/25 11:10:12;;;;;;;9.35;1.50;;;1.20;99.90;;;;;;5078849;28;20391;-72
2021/01/25 11:12:37;;;;;;;4.45;1.95;;;1.20;99.90;;;;;;5048688;28;20032;-72
2021/01/25 11:15:06;;;;;;;10.55;1.40;;;1.30;99.90;;;;;;5065229;28;20016;-72
2021/01/25 11:17:32;;;;;;;2.67;1.02;;;1.30;99.90;;;;;;5071995;28;20021;-72
2021/01/25 11:19:57;;;;;;;5.72;1.20;;;1.30;99.90;;;;;;5084019;28;20024;-72
2021/01/25 11:22:23;;;;;;;1.75;0.82;;;1.40;99.90;;;;;;5046847;28;20021;-72
2021/01/25 11:24:49;;;;;;;1.10;0.98;;;1.40;99.90;;;;;;5083857;28;20106;-71
2021/01/25 11:27:17;;;;;;;6.30;0.90;;;1.40;99.90;;;;;;5050527;28;20029;-74
2021/01/25 11:29:43;;;;;;;6.60;1.35;;;1.30;99.90;;;;;;5058655;28;20379;-72
2021/01/25 11:32:10;;;;;;;0.70;0.70;;;1.30;99.90;;;;;;5061814;28;20020;-72
2021/01/25 11:34:37;;;;;;;7.50;1.20;;;1.30;99.90;;;;;;5049463;28;20024;-72
2021/01/25 11:37:03;;;;;;;2.63;0.98;;;1.20;99.90;;;;;;5074501;28;20020;-72
2021/01/25 11:39:30;;;;;;;1.23;0.90;;;1.30;99.90;;;;;;5044448;28;20071;-72
2021/01/25 11:41:57;;;;;;;1.88;1.00;;;1.20;99.90;;;;;;5063333;28;20112;-72
2021/01/25 11:44:23;;;;;;;4.18;1.15;;;1.10;99.90;;;;;;5057766;28;20534;-73
2021/01/25 11:46:49;;;;;;;2.40;1.00;;;1.20;99.90;;;;;;5069460;28;20062;-72
2021/01/25 11:49:15;;;;;;;7.63;2.53;;;1.00;99.90;;;;;;5065010;28;20028;-72
2021/01/25 11:51:42;;;;;;;5.85;1.20;;;1.00;99.90;;;;;;5065132;28;20056;-72
2021/01/25 11:54:08;;;;;;;2.40;1.10;;;1.10;99.90;;;;;;5045817;28;20016;-72
2021/01/25 11:56:33;;;;;;;3.97;1.50;;;1.00;99.90;;;;;;5077783;28;20107;-72
2021/01/25 11:58:59;;;;;;;6.95;1.30;;;1.10;99.90;;;;;;5042597;28;20016;-72
2021/01/25 12:01:25;;;;;;;5.40;1.50;;;1.20;99.90;;;;;;5082945;28;20024;-72
2021/01/25 12:03:51;;;;;;;3.38;1.33;;;1.30;99.90;;;;;;5047818;28;20111;-72
2021/01/25 12:06:16;;;;;;;22.25;2.67;;;1.30;99.90;;;;;;5087625;28;20071;-73
2021/01/25 12:08:42;;;;;;;3.13;1.67;;;1.30;99.90;;;;;;5064574;28;20049;-72
2021/01/25 12:11:08;;;;;;;14.25;2.63;;;1.40;99.90;;;;;;5073441;28;20066;-72
2021/01/25 12:13:34;;;;;;;10.23;0.95;;;1.60;99.90;;;;;;5092476;28;20016;-72
2021/01/25 12:15:59;;;;;;;6.88;1.60;;;1.60;99.90;;;;;;5067935;28;20045;-72
2021/01/25 12:18:28;;;;;;;3.08;1.10;;;1.70;99.90;;;;;;5066099;28;20043;-72
2021/01/25 12:20:55;;;;;;;6.45;1.20;;;1.60;99.90;;;;;;5058727;28;20108;-72
2021/01/25 12:23:21;;;;;;;10.80;1.58;;;1.70;99.90;;;;;;5064060;28;20129;-72
2021/01/25 12:25:47;;;;;;;18.15;1.60;;;1.70;99.90;;;;;;5069124;28;20067;-72
2021/01/25 12:28:13;;;;;;;5.90;1.52;;;1.80;99.90;;;;;;5086722;28;20028;-72
2021/01/25 12:30:39;;;;;;;6.35;1.70;;;1.90;99.90;;;;;;5070115;28;20077;-72
2021/01/25 12:33:05;;;;;;;11.00;2.88;;;2.00;99.90;;;;;;5063915;28;20017;-72
2021/01/25 12:35:31;;;;;;;10.70;1.42;;;2.00;99.90;;;;;;5082120;28;20025;-72
2021/01/25 12:37:57;;;;;;;6.53;1.50;;;2.00;99.90;;;;;;5058262;28;20020;-72
2021/01/25 12:40:24;;;;;;;4.47;1.20;;;2.20;99.90;;;;;;5043845;28;20029;-72
2021/01/25 12:42:51;;;;;;;2.80;1.13;;;2.30;99.90;;;;;;5086639;28;20024;-72
2021/01/25 12:45:18;;;;;;;4.13;1.20;;;2.40;99.90;;;;;;5042191;28;20373;-73
2021/01/25 12:47:44;;;;;;;4.10;1.00;;;2.30;99.90;;;;;;5080962;28;20027;-72
2021/01/25 12:50:10;;;;;;;4.35;1.58;;;2.10;99.90;;;;;;5051631;28;20357;-72
2021/01/25 12:52:36;;;;;;;2.05;1.35;;;1.90;99.90;;;;;;5064897;28;20429;-72